Time;durP1;ratioP1;P1;durP2;ratioP2;P2;SDS_P1;SDS_P2;PMS_P1;PMS_P2;Temp;Humidity;BMP_temperature;BMP_pressure;BME280_temperature;BME280_humidity;BME280_pressure;Samples;Min_cycle;Max_cycle;Signal;HPM_P1;HPM_P2
2022/02/06 00:00:52;;;;;;;6.97;3.17;;;;;;;;;;2615014;54;20443;-75
2022/02/06 00:03:19;;;;;;;4.73;2.10;;;;;;;;;;2615168;54;20412;-75
2022/02/06 00:05:48;;;;;;;11.47;3.23;;;;;;;;;;2615341;39;20804;-74
2022/02/06 00:08:14;;;;;;;7.53;2.03;;;;;;;;;;2613513;54;20985;-75
2022/02/06 00:10:41;;;;;;;4.43;2.00;;;;;;;;;;2614920;31;20873;-75
2022/02/06 00:13:07;;;;;;;3.40;2.10;;;;;;;;;;2614936;54;20422;-75
2022/02/06 00:15:35;;;;;;;8.50;2.97;;;;;;;;;;2614287;54;20530;-75
2022/02/06 00:18:01;;;;;;;4.27;3.07;;;;;;;;;;2614182;54;20979;-75
2022/02/06 00:20:34;;;;;;;2.43;1.90;;;;;;;;;;2614747;46;20566;-75
2022/02/06 00:23:05;;;;;;;5.90;2.20;;;;;;;;;;2613645;54;20503;-75
2022/02/06 00:33:24;;;;;;;3.10;2.17;;;;;;;;;;2615027;54;20412;-75
2022/02/06 00:41:22;;;;;;;5.53;2.93;;;;;;;;;;2614295;47;20423;-76
2022/02/06 00:43:48;;;;;;;4.60;2.47;;;;;;;;;;2614057;54;20394;-75
2022/02/06 00:46:16;;;;;;;6.10;3.30;;;;;;;;;;2614024;54;20391;-76
2022/02/06 00:48:48;;;;;;;3.73;2.77;;;;;;;;;;2614582;39;20853;-75
2022/02/06 00:51:25;;;;;;;6.13;3.00;;;;;;;;;;2615347;54;20958;-75
2022/02/06 00:53:52;;;;;;;10.10;2.67;;;;;;;;;;2615175;39;21328;-76
2022/02/06 00:56:19;;;;;;;3.67;3.03;;;;;;;;;;2615032;54;20423;-75
2022/02/06 00:58:45;;;;;;;8.30;3.60;;;;;;;;;;2614995;54;20379;-75
2022/02/06 01:01:11;;;;;;;5.03;2.33;;;;;;;;;;2614421;47;21039;-75
2022/02/06 01:03:38;;;;;;;6.70;3.93;;;;;;;;;;2615242;54;20531;-75
2022/02/06 01:06:05;;;;;;;12.53;3.37;;;;;;;;;;2614966;39;21098;-75
2022/02/06 01:08:31;;;;;;;7.90;2.90;;;;;;;;;;2614818;54;20527;-76
2022/02/06 01:10:57;;;;;;;3.77;2.87;;;;;;;;;;2614537;47;20439;-74
2022/02/06 01:13:33;;;;;;;11.20;3.40;;;;;;;;;;2615372;54;20535;-75
2022/02/06 01:16:06;;;;;;;11.07;4.10;;;;;;;;;;2614913;47;20415;-75
2022/02/06 01:18:41;;;;;;;5.90;3.30;;;;;;;;;;2614683;54;20450;-76
2022/02/06 01:21:20;;;;;;;7.47;3.40;;;;;;;;;;2614899;54;20410;-75
2022/02/06 01:27:10;;;;;;;5.67;3.20;;;;;;;;;;2614812;54;20431;-75
2022/02/06 01:34:41;;;;;;;4.97;2.77;;;;;;;;;;2615679;54;20458;-75
2022/02/06 01:42:22;;;;;;;6.70;2.50;;;;;;;;;;2614976;54;20388;-75
2022/02/06 02:01:12;;;;;;;8.50;3.10;;;;;;;;;;2615027;54;20992;-74
2022/02/06 02:03:50;;;;;;;6.37;2.67;;;;;;;;;;2614964;54;20514;-74
2022/02/06 02:17:05;;;;;;;5.00;2.10;;;;;;;;;;2614933;47;20419;-74
2022/02/06 02:27:45;;;;;;;7.47;3.70;;;;;;;;;;2614428;51;20419;-75
2022/02/06 02:46:31;;;;;;;4.87;2.10;;;;;;;;;;2614457;39;20823;-73
2022/02/06 02:48:59;;;;;;;7.83;3.50;;;;;;;;;;2614145;54;20427;-74
2022/02/06 02:51:30;;;;;;;4.93;2.40;;;;;;;;;;2615306;54;20394;-73
2022/02/06 02:54:02;;;;;;;7.63;4.40;;;;;;;;;;2614056;54;20423;-74
2022/02/06 02:56:48;;;;;;;5.83;2.80;;;;;;;;;;2614453;54;20427;-74
2022/02/06 02:59:28;;;;;;;3.83;2.37;;;;;;;;;;2613904;47;20923;-74
2022/02/06 03:02:00;;;;;;;2.67;2.47;;;;;;;;;;2613593;46;20975;-75
2022/02/06 03:04:27;;;;;;;6.13;2.83;;;;;;;;;;2614546;54;20411;-74
2022/02/06 03:06:53;;;;;;;8.50;3.40;;;;;;;;;;2615438;54;20423;-75
2022/02/06 03:09:21;;;;;;;5.97;3.33;;;;;;;;;;2613918;54;20404;-74
2022/02/06 03:11:47;;;;;;;6.50;4.63;;;;;;;;;;2615395;39;20834;-73
2022/02/06 03:14:19;;;;;;;9.53;3.70;;;;;;;;;;2614007;54;20542;-75
2022/02/06 03:17:01;;;;;;;3.93;2.93;;;;;;;;;;2614783;54;20426;-73
2022/02/06 03:19:29;;;;;;;4.63;3.10;;;;;;;;;;2613589;54;20402;-74
2022/02/06 03:21:57;;;;;;;3.33;2.87;;;;;;;;;;2615324;54;20420;-74
2022/02/06 03:24:25;;;;;;;4.97;3.90;;;;;;;;;;2613890;39;20786;-74
2022/02/06 03:26:53;;;;;;;5.23;3.30;;;;;;;;;;2615086;54;20547;-74
2022/02/06 03:29:20;;;;;;;8.07;2.90;;;;;;;;;;2614547;54;20396;-73
2022/02/06 03:31:47;;;;;;;6.33;2.87;;;;;;;;;;2614862;54;20459;-75
2022/02/06 03:34:13;;;;;;;7.93;2.90;;;;;;;;;;2614834;39;20819;-74
2022/02/06 03:36:39;;;;;;;7.20;2.97;;;;;;;;;;2615029;39;20939;-73
2022/02/06 03:39:06;;;;;;;9.23;3.07;;;;;;;;;;2615118;39;20857;-74
2022/02/06 03:41:48;;;;;;;19.03;3.60;;;;;;;;;;2614542;54;20419;-73
2022/02/06 03:44:40;;;;;;;8.13;3.83;;;;;;;;;;2615103;54;20490;-74
2022/02/06 03:50:04;;;;;;;5.60;2.90;;;;;;;;;;2613275;54;20472;-74
2022/02/06 03:52:43;;;;;;;4.53;2.60;;;;;;;;;;2614251;54;20971;-74
2022/02/06 03:55:09;;;;;;;6.90;3.90;;;;;;;;;;2614858;54;20955;-74
2022/02/06 03:57:36;;;;;;;15.73;4.27;;;;;;;;;;2613332;54;20447;-74
2022/02/06 04:00:02;;;;;;;6.00;3.30;;;;;;;;;;2614667;54;20410;-75
2022/02/06 04:02:31;;;;;;;3.63;2.70;;;;;;;;;;2614376;54;20407;-74
2022/02/06 04:04:57;;;;;;;6.47;2.80;;;;;;;;;;2614231;54;20429;-75
2022/02/06 04:07:23;;;;;;;3.90;3.00;;;;;;;;;;2613798;54;20422;-75
2022/02/06 04:09:53;;;;;;;6.97;3.20;;;;;;;;;;2614494;54;20428;-75
2022/02/06 04:12:21;;;;;;;8.43;4.10;;;;;;;;;;2614862;39;20889;-75
2022/02/06 04:15:05;;;;;;;3.43;2.70;;;;;;;;;;2614518;54;20443;-75
2022/02/06 04:17:37;;;;;;;4.10;2.43;;;;;;;;;;2613873;54;21287;-75
2022/02/06 04:20:03;;;;;;;4.60;3.07;;;;;;;;;;2614944;54;20998;-75
2022/02/06 04:22:30;;;;;;;9.10;2.63;;;;;;;;;;2613860;47;20440;-75
2022/02/06 04:24:56;;;;;;;6.50;3.80;;;;;;;;;;2614096;54;20423;-73
2022/02/06 04:27:22;;;;;;;8.60;3.03;;;;;;;;;;2614653;39;20780;-73
2022/02/06 04:29:50;;;;;;;12.30;4.17;;;;;;;;;;2614473;54;20548;-74
2022/02/06 04:32:17;;;;;;;7.40;3.70;;;;;;;;;;2614184;39;20813;-74
2022/02/06 04:34:43;;;;;;;7.37;3.50;;;;;;;;;;2613924;47;20445;-74
2022/02/06 04:37:23;;;;;;;6.77;2.73;;;;;;;;;;2614253;47;20499;-75
2022/02/06 04:45:36;;;;;;;5.90;2.83;;;;;;;;;;2613795;54;20419;-73
2022/02/06 05:17:41;;;;;;;7.87;3.37;;;;;;;;;;2613972;54;20399;-74
2022/02/06 05:25:37;;;;;;;5.60;3.40;;;;;;;;;;2615154;39;20828;-75
2022/02/06 05:31:05;;;;;;;5.00;2.80;;;;;;;;;;2613996;54;20415;-74
2022/02/06 05:33:31;;;;;;;4.90;3.40;;;;;;;;;;2614123;54;20415;-74
2022/02/06 05:35:58;;;;;;;13.30;3.77;;;;;;;;;;2614010;54;20571;-75
2022/02/06 05:38:27;;;;;;;5.17;2.97;;;;;;;;;;2615338;54;21004;-75
2022/02/06 05:40:53;;;;;;;14.17;3.20;;;;;;;;;;2615183;54;20408;-75
2022/02/06 05:43:19;;;;;;;3.83;2.60;;;;;;;;;;2614998;54;20415;-75
2022/02/06 05:45:45;;;;;;;3.67;3.23;;;;;;;;;;2615305;54;20484;-74
2022/02/06 05:48:12;;;;;;;4.47;3.10;;;;;;;;;;2614103;54;20422;-75
2022/02/06 05:50:39;;;;;;;8.33;3.13;;;;;;;;;;2614918;54;20976;-75
2022/02/06 05:53:05;;;;;;;6.23;3.40;;;;;;;;;;2614359;54;20400;-74
2022/02/06 05:55:32;;;;;;;4.60;3.40;;;;;;;;;;2615387;31;20897;-74
2022/02/06 05:57:58;;;;;;;10.53;3.00;;;;;;;;;;2614055;51;20427;-74
2022/02/06 06:00:25;;;;;;;3.90;3.10;;;;;;;;;;2614275;31;21041;-74
2022/02/06 06:02:51;;;;;;;2.67;2.47;;;;;;;;;;2615181;54;20420;-75
2022/02/06 06:05:19;;;;;;;6.00;3.70;;;;;;;;;;2615115;54;20515;-75
2022/02/06 06:07:45;;;;;;;8.23;3.43;;;;;;;;;;2614298;54;20458;-75
2022/02/06 06:10:12;;;;;;;4.20;2.40;;;;;;;;;;2615385;54;20416;-74
2022/02/06 06:12:39;;;;;;;5.23;2.70;;;;;;;;;;2614252;54;20402;-75
2022/02/06 06:15:06;;;;;;;5.63;3.10;;;;;;;;;;2614884;46;20485;-75
2022/02/06 06:17:33;;;;;;;5.20;2.87;;;;;;;;;;2614723;54;20427;-75
2022/02/06 06:19:59;;;;;;;4.73;2.83;;;;;;;;;;2615563;39;20817;-75
2022/02/06 06:22:25;;;;;;;3.37;2.40;;;;;;;;;;2613887;47;20451;-74
2022/02/06 06:24:56;;;;;;;4.67;3.03;;;;;;;;;;2615483;39;20849;-76
2022/02/06 06:27:22;;;;;;;4.40;3.57;;;;;;;;;;2614811;54;20415;-75
2022/02/06 06:29:48;;;;;;;5.83;2.50;;;;;;;;;;2613676;54;20542;-74
2022/02/06 06:32:15;;;;;;;5.43;2.80;;;;;;;;;;2614549;54;20415;-75
2022/02/06 06:34:41;;;;;;;2.40;2.20;;;;;;;;;;2614103;47;20404;-75
2022/02/06 06:37:07;;;;;;;3.13;2.50;;;;;;;;;;2614729;54;20412;-75
2022/02/06 06:39:41;;;;;;;6.23;3.20;;;;;;;;;;2613307;46;20427;-74
2022/02/06 06:42:07;;;;;;;2.77;2.50;;;;;;;;;;2614394;54;20407;-75
2022/02/06 06:44:34;;;;;;;3.77;2.63;;;;;;;;;;2614730;54;20419;-75
2022/02/06 06:47:00;;;;;;;5.17;2.87;;;;;;;;;;2613422;54;20384;-74
2022/02/06 06:49:26;;;;;;;3.73;3.00;;;;;;;;;;2614183;39;20775;-75
2022/02/06 06:51:55;;;;;;;12.10;3.03;;;;;;;;;;2614278;54;20593;-75
2022/02/06 06:54:22;;;;;;;4.77;2.87;;;;;;;;;;2614796;54;20415;-74
2022/02/06 06:56:58;;;;;;;3.90;2.57;;;;;;;;;;2614163;47;21004;-75
2022/02/06 06:59:29;;;;;;;5.80;2.43;;;;;;;;;;2614632;47;20459;-75
2022/02/06 07:02:16;;;;;;;5.70;3.27;;;;;;;;;;2612146;54;20408;-74
2022/02/06 07:04:43;;;;;;;4.80;3.00;;;;;;;;;;2615754;39;20835;-75
2022/02/06 07:07:09;;;;;;;3.00;2.47;;;;;;;;;;2615190;54;20411;-74
2022/02/06 07:09:37;;;;;;;2.60;2.30;;;;;;;;;;2615741;54;20540;-75
2022/02/06 07:12:04;;;;;;;3.20;2.73;;;;;;;;;;2614862;54;20427;-73
2022/02/06 07:14:30;;;;;;;2.60;2.00;;;;;;;;;;2614597;46;20439;-75
2022/02/06 07:16:56;;;;;;;2.20;2.00;;;;;;;;;;2614830;54;20471;-74
2022/02/06 07:19:23;;;;;;;5.67;2.00;;;;;;;;;;2614291;54;20987;-75
2022/02/06 07:21:49;;;;;;;6.30;2.90;;;;;;;;;;2613822;47;20439;-75
2022/02/06 07:24:17;;;;;;;4.03;2.23;;;;;;;;;;2614212;47;20423;-74
2022/02/06 07:26:46;;;;;;;3.60;2.40;;;;;;;;;;2614326;54;20412;-74
2022/02/06 07:29:16;;;;;;;6.60;3.53;;;;;;;;;;2613989;54;20439;-74
2022/02/06 07:31:43;;;;;;;5.10;2.50;;;;;;;;;;2614411;51;20462;-74
2022/02/06 07:34:10;;;;;;;4.13;3.40;;;;;;;;;;2615042;54;20458;-74
2022/02/06 07:36:36;;;;;;;2.67;2.33;;;;;;;;;;2614723;54;20412;-74
2022/02/06 07:39:03;;;;;;;3.57;3.23;;;;;;;;;;2614873;54;20999;-75
2022/02/06 07:41:29;;;;;;;6.00;2.97;;;;;;;;;;2614066;39;20802;-75
2022/02/06 07:43:55;;;;;;;2.87;2.60;;;;;;;;;;2613970;39;20821;-74
2022/02/06 07:46:29;;;;;;;7.00;3.40;;;;;;;;;;2614647;54;20408;-74
2022/02/06 07:49:02;;;;;;;3.07;2.40;;;;;;;;;;2614837;54;20418;-74
2022/02/06 07:51:28;;;;;;;3.20;2.97;;;;;;;;;;2614231;47;20462;-74
2022/02/06 07:53:54;;;;;;;6.03;3.67;;;;;;;;;;2614879;54;20398;-74
2022/02/06 07:56:21;;;;;;;3.80;2.33;;;;;;;;;;2613776;54;20407;-75
2022/02/06 07:58:47;;;;;;;4.50;3.27;;;;;;;;;;2614102;54;20404;-74
2022/02/06 08:01:13;;;;;;;15.43;3.60;;;;;;;;;;2613799;54;20405;-74
2022/02/06 08:03:39;;;;;;;7.53;3.53;;;;;;;;;;2614226;47;20980;-74
2022/02/06 08:06:05;;;;;;;3.40;2.13;;;;;;;;;;2613933;47;20426;-74
2022/02/06 08:08:32;;;;;;;2.57;2.30;;;;;;;;;;2614008;54;20419;-76
2022/02/06 08:11:01;;;;;;;2.73;2.20;;;;;;;;;;2613813;47;20423;-74
2022/02/06 08:13:39;;;;;;;2.30;2.10;;;;;;;;;;2613924;54;20455;-75
2022/02/06 08:16:06;;;;;;;3.53;2.90;;;;;;;;;;2614238;54;20503;-75
2022/02/06 08:18:36;;;;;;;3.20;2.40;;;;;;;;;;2614327;47;20431;-74
2022/02/06 08:21:04;;;;;;;4.53;2.60;;;;;;;;;;2614823;39;20809;-74
2022/02/06 08:23:30;;;;;;;4.73;2.03;;;;;;;;;;2614780;54;20447;-73
2022/02/06 08:25:59;;;;;;;3.13;2.80;;;;;;;;;;2614332;39;20813;-74
2022/02/06 08:28:26;;;;;;;4.23;2.10;;;;;;;;;;2615040;54;20400;-74
2022/02/06 08:30:52;;;;;;;2.40;1.90;;;;;;;;;;2614432;54;20447;-74
2022/02/06 08:33:18;;;;;;;7.23;3.43;;;;;;;;;;2614233;54;20438;-75
2022/02/06 08:35:45;;;;;;;2.80;2.13;;;;;;;;;;2614516;39;20827;-75
2022/02/06 08:38:13;;;;;;;3.07;1.80;;;;;;;;;;2614219;54;20419;-74
2022/02/06 08:40:39;;;;;;;2.10;1.80;;;;;;;;;;2614129;54;20508;-75
2022/02/06 08:43:06;;;;;;;5.43;2.20;;;;;;;;;;2613697;54;20387;-74
2022/02/06 08:45:33;;;;;;;2.77;1.57;;;;;;;;;;2612910;54;20479;-75
2022/02/06 08:47:59;;;;;;;3.47;1.87;;;;;;;;;;2614897;54;20419;-74
2022/02/06 08:50:25;;;;;;;2.00;1.90;;;;;;;;;;2614435;54;20510;-73
2022/02/06 08:52:57;;;;;;;2.10;1.90;;;;;;;;;;2614090;54;20415;-74
2022/02/06 08:55:24;;;;;;;2.40;2.17;;;;;;;;;;2614755;54;20428;-74
2022/02/06 08:57:51;;;;;;;3.20;2.40;;;;;;;;;;2613785;54;20428;-75
2022/02/06 09:00:19;;;;;;;1.63;1.53;;;;;;;;;;2614176;54;20491;-75
2022/02/06 09:02:46;;;;;;;2.30;1.77;;;;;;;;;;2613077;47;20435;-74
2022/02/06 09:05:12;;;;;;;1.73;1.63;;;;;;;;;;2612796;47;20431;-74
2022/02/06 09:07:42;;;;;;;3.30;1.80;;;;;;;;;;2613627;54;20431;-76
2022/02/06 09:10:09;;;;;;;1.77;1.17;;;;;;;;;;2614423;54;20465;-75
2022/02/06 09:12:39;;;;;;;4.20;2.30;;;;;;;;;;2614394;54;20434;-74
2022/02/06 09:15:06;;;;;;;1.83;1.73;;;;;;;;;;2614254;54;20462;-74
2022/02/06 09:17:32;;;;;;;3.13;1.50;;;;;;;;;;2614764;54;20431;-74
2022/02/06 09:19:58;;;;;;;3.00;1.97;;;;;;;;;;2613980;54;20467;-75
2022/02/06 09:22:25;;;;;;;2.50;2.30;;;;;;;;;;2614612;47;20423;-74
2022/02/06 09:24:51;;;;;;;3.53;2.13;;;;;;;;;;2614036;54;20415;-74
2022/02/06 09:27:17;;;;;;;2.20;1.70;;;;;;;;;;2614700;47;20423;-74
2022/02/06 09:29:43;;;;;;;2.67;2.07;;;;;;;;;;2614700;54;20957;-74
2022/02/06 09:37:07;;;;;;;1.97;1.87;;;;;;;;;;2614767;54;20415;-74
2022/02/06 09:39:38;;;;;;;1.77;1.60;;;;;;;;;;2613922;54;20399;-74
2022/02/06 09:42:05;;;;;;;3.50;1.87;;;;;;;;;;2614568;54;20434;-74
2022/02/06 09:44:31;;;;;;;1.60;1.30;;;;;;;;;;2613951;39;20866;-75
2022/02/06 09:46:58;;;;;;;1.30;1.20;;;;;;;;;;2614030;46;20439;-77
2022/02/06 09:49:26;;;;;;;2.30;1.40;;;;;;;;;;2614128;47;20998;-74
2022/02/06 09:51:53;;;;;;;1.80;1.60;;;;;;;;;;2614698;51;20496;-75
2022/02/06 09:54:22;;;;;;;1.97;1.80;;;;;;;;;;2614618;54;20392;-75
2022/02/06 09:56:51;;;;;;;1.77;1.20;;;;;;;;;;2614711;47;20440;-73
2022/02/06 09:59:20;;;;;;;1.87;1.77;;;;;;;;;;2614300;54;20400;-75
2022/02/06 10:01:47;;;;;;;2.37;1.47;;;;;;;;;;2614482;54;20987;-76
2022/02/06 10:04:25;;;;;;;1.73;1.63;;;;;;;;;;2614850;39;20786;-74
2022/02/06 10:06:54;;;;;;;4.27;2.13;;;;;;;;;;2614289;54;21283;-75
2022/02/06 10:09:23;;;;;;;1.23;1.00;;;;;;;;;;2613574;54;20427;-75
2022/02/06 10:11:53;;;;;;;2.00;1.50;;;;;;;;;;2614622;47;20423;-75
2022/02/06 10:14:19;;;;;;;1.60;1.50;;;;;;;;;;2613199;54;21007;-75
2022/02/06 10:16:46;;;;;;;3.67;1.60;;;;;;;;;;2614431;54;20940;-76
2022/02/06 10:19:15;;;;;;;1.50;1.40;;;;;;;;;;2613715;47;20979;-76
2022/02/06 10:21:42;;;;;;;1.50;1.40;;;;;;;;;;2613913;47;20506;-74
2022/02/06 10:24:17;;;;;;;1.87;1.53;;;;;;;;;;2615186;54;21327;-75
2022/02/06 10:27:03;;;;;;;3.97;1.43;;;;;;;;;;2614709;54;20445;-75
2022/02/06 10:29:39;;;;;;;0.60;0.40;;;;;;;;;;2613427;54;21437;-74
2022/02/06 10:32:06;;;;;;;0.40;0.30;;;7.70;99.90;;;;;;2614508;54;20458;-75
2022/02/06 10:34:37;;;;;;;3.90;1.27;;;7.80;99.90;;;;;;2613538;47;20430;-76
2022/02/06 10:37:11;;;;;;;2.33;2.23;;;;;;;;;;2613608;47;20411;-76
2022/02/06 10:39:40;;;;;;;1.30;1.13;;;;;;;;;;2614212;54;20529;-76
2022/02/06 10:42:22;;;;;;;1.20;1.10;;;7.80;99.90;;;;;;2615127;39;21259;-75
2022/02/06 10:44:50;;;;;;;1.00;0.70;;;;;;;;;;2614414;54;20483;-76
2022/02/06 10:47:30;;;;;;;1.93;1.53;;;7.70;99.90;;;;;;2614585;47;21419;-76
2022/02/06 10:50:04;;;;;;;1.40;1.20;;;;;;;;;;2613977;54;20404;-75
2022/02/06 10:52:33;;;;;;;1.13;1.03;;;;;;;;;;2614817;54;20406;-75
2022/02/06 10:55:00;;;;;;;4.73;1.30;;;;;;;;;;2615802;54;20404;-78
2022/02/06 10:57:28;;;;;;;1.53;1.43;;;7.90;99.90;;;;;;2614446;47;20463;-77
2022/02/06 10:59:56;;;;;;;1.23;1.13;;;;;;;;;;2616266;39;20817;-75
2022/02/06 11:02:29;;;;;;;1.50;1.10;;;;;;;;;;2614020;47;20432;-76
2022/02/06 11:04:58;;;;;;;0.80;0.80;;;;;;;;;;2614505;47;21296;-75
2022/02/06 11:07:27;;;;;;;1.63;1.30;;;7.80;99.90;;;;;;2615350;54;20431;-78
2022/02/06 11:10:04;;;;;;;1.10;1.00;;;;;;;;;;2614221;54;20566;-76
2022/02/06 11:12:31;;;;;;;1.00;0.90;;;;;;;;;;2614811;54;20400;-77
2022/02/06 11:15:02;;;;;;;1.23;1.13;;;;;;;;;;2614546;51;20447;-76
2022/02/06 11:17:33;;;;;;;1.40;1.30;;;;;;;;;;2615175;47;20416;-75
2022/02/06 11:20:00;;;;;;;0.80;0.80;;;7.80;99.90;;;;;;2615605;39;20842;-77
2022/02/06 11:22:26;;;;;;;1.40;1.10;;;7.80;99.90;;;;;;2615649;31;20853;-76
2022/02/06 11:24:53;;;;;;;2.70;1.30;;;;;;;;;;2614065;54;20428;-76
2022/02/06 11:27:20;;;;;;;1.90;1.70;;;;;;;;;;2614450;54;21032;-78
2022/02/06 11:29:48;;;;;;;1.30;1.20;;;;;;;;;;2614439;51;20424;-78
2022/02/06 11:32:15;;;;;;;1.23;1.13;;;;;;;;;;2614376;47;20533;-77
2022/02/06 11:34:44;;;;;;;2.97;1.40;;;;;;;;;;2614819;47;20408;-77
2022/02/06 11:46:00;;;;;;;0.40;0.30;;;8.10;99.90;;;;;;2614981;47;20458;-77
2022/02/06 11:48:32;;;;;;;2.70;0.93;;;7.80;99.90;;;;;;2614760;47;20433;-77
2022/02/06 11:50:58;;;;;;;0.97;0.87;;;7.70;99.90;;;;;;2614396;47;20470;-77
2022/02/06 11:53:28;;;;;;;0.83;0.80;;;7.40;99.90;;;;;;2614802;47;20415;-77
2022/02/06 11:55:56;;;;;;;1.53;1.03;;;7.70;99.90;;;;;;2615016;39;20819;-78
2022/02/06 11:58:35;;;;;;;1.23;1.20;;;7.70;99.90;;;;;;2615052;54;20944;-79
2022/02/06 12:01:07;;;;;;;1.77;1.33;;;7.70;99.90;;;;;;2615362;54;20450;-77
2022/02/06 12:03:57;;;;;;;4.40;0.97;;;7.70;99.90;;;;;;2615657;39;20806;-78
2022/02/06 12:06:29;;;;;;;1.90;1.37;;;7.70;99.90;;;;;;2615528;54;20412;-78
2022/02/06 12:08:59;;;;;;;2.30;1.27;;;7.70;99.90;;;;;;2615406;51;20422;-78
2022/02/06 12:11:33;;;;;;;1.50;1.10;;;7.70;99.90;;;;;;2614897;54;20384;-79
2022/02/06 12:14:28;;;;;;;1.00;0.70;;;7.70;99.90;;;;;;2615975;54;20459;-80
2022/02/06 12:20:08;;;;;;;1.50;0.90;;;7.80;99.90;;;;;;2615016;46;20433;-78
2022/02/06 12:22:42;;;;;;;2.03;0.90;;;7.70;99.90;;;;;;2615104;54;20406;-78
2022/02/06 12:25:37;;;;;;;1.33;1.07;;;7.80;99.90;;;;;;2615006;54;20422;-78
2022/02/06 12:28:18;;;;;;;1.33;1.23;;;7.80;99.90;;;;;;2615290;54;20411;-78
2022/02/06 12:30:46;;;;;;;1.17;0.87;;;7.80;99.90;;;;;;2615242;54;20447;-78
2022/02/06 12:33:39;;;;;;;1.90;0.87;;;7.80;99.90;;;;;;2614653;47;20416;-78
2022/02/06 12:38:52;;;;;;;4.20;2.53;;;7.90;99.90;;;;;;2615518;47;20403;-79
2022/02/06 12:41:27;;;;;;;1.40;1.30;;;7.90;99.90;;;;;;2615083;54;20411;-78
2022/02/06 12:43:57;;;;;;;1.27;1.17;;;7.90;99.90;;;;;;2615651;39;21196;-79
2022/02/06 12:46:25;;;;;;;1.83;1.00;;;8.00;99.90;;;;;;2615770;54;20474;-79
2022/02/06 12:48:58;;;;;;;2.03;0.97;;;8.10;99.90;;;;;;2616172;47;20419;-78
2022/02/06 12:51:30;;;;;;;1.43;0.93;;;8.10;99.90;;;;;;2615702;54;20442;-80
2022/02/06 12:54:03;;;;;;;1.17;1.03;;;8.10;99.90;;;;;;2616749;54;20448;-77
2022/02/06 12:56:32;;;;;;;1.17;0.90;;;8.20;99.90;;;;;;2616743;54;20404;-79
2022/02/06 12:58:59;;;;;;;1.53;1.40;;;8.20;99.90;;;;;;2615982;47;20439;-79
2022/02/06 13:01:39;;;;;;;2.00;1.50;;;8.20;99.90;;;;;;2616044;54;20571;-79
2022/02/06 13:04:08;;;;;;;1.23;1.13;;;8.40;99.90;;;;;;2615636;46;20419;-78
2022/02/06 13:06:40;;;;;;;1.10;1.10;;;8.40;99.90;;;;;;2615917;47;20446;-78
2022/02/06 13:09:14;;;;;;;1.63;1.17;;;8.40;99.90;;;;;;2615258;46;20442;-79
2022/02/06 13:11:54;;;;;;;1.30;1.20;;;8.50;99.90;;;;;;2615809;47;20423;-78
2022/02/06 13:15:10;;;;;;;1.53;1.43;;;8.50;99.90;;;;;;2615352;54;20450;-78
2022/02/06 13:33:39;;;;;;;0.70;0.70;;;7.70;99.90;;;;;;2615865;54;20146;-79
2022/02/06 13:36:52;;;;;;;1.27;1.17;;;7.60;99.90;;;;;;2615294;47;20447;-79
2022/02/06 13:39:06;;;;;;;1.80;1.57;;;7.50;99.90;;;;;;2614594;48;20427;-79
2022/02/06 13:41:33;;;;;;;3.60;1.93;;;7.40;99.90;;;;;;2615357;46;20423;-78
2022/02/06 13:43:59;;;;;;;1.47;1.20;;;7.20;99.90;;;;;;2615368;54;20510;-78
2022/02/06 13:46:33;;;;;;;3.57;2.50;;;7.40;99.90;;;;;;2615118;47;20458;-78
2022/02/06 13:48:59;;;;;;;2.00;1.87;;;7.60;99.90;;;;;;2615103;50;20423;-79
2022/02/06 13:51:26;;;;;;;1.90;1.60;;;7.70;99.90;;;;;;2615291;54;20408;-78
2022/02/06 13:54:02;;;;;;;1.90;1.80;;;7.60;99.90;;;;;;2615806;54;20502;-78
2022/02/06 13:56:29;;;;;;;1.97;1.30;;;7.60;99.90;;;;;;2615149;54;20395;-78
2022/02/06 13:59:02;;;;;;;2.20;1.70;;;7.60;99.90;;;;;;2615806;54;20415;-78
2022/02/06 14:01:53;;;;;;;2.60;1.90;;;7.80;99.90;;;;;;2614837;54;20955;-79
2022/02/06 14:04:39;;;;;;;1.73;1.40;;;7.80;99.90;;;;;;2613539;54;20499;-78
2022/02/06 14:07:14;;;;;;;4.87;2.20;;;7.80;99.90;;;;;;2615167;47;20423;-77
2022/02/06 14:12:09;;;;;;;2.20;1.97;;;7.70;99.90;;;;;;2615667;54;20519;-78
2022/02/06 14:14:38;;;;;;;4.00;2.20;;;7.60;99.90;;;;;;2614538;54;20816;-77
2022/02/06 14:17:08;;;;;;;4.50;3.63;;;7.40;99.90;;;;;;2615044;47;20407;-76
2022/02/06 14:19:43;;;;;;;3.20;1.90;;;7.20;99.90;;;;;;2614855;54;20486;-76
2022/02/06 14:22:24;;;;;;;4.53;2.60;;;7.30;99.90;;;;;;2615270;54;20396;-76
2022/02/06 14:24:51;;;;;;;2.63;1.70;;;7.20;99.90;;;;;;2615125;47;20419;-76
2022/02/06 14:27:38;;;;;;;3.30;2.50;;;7.20;99.90;;;;;;2616087;39;20750;-76
2022/02/06 14:30:15;;;;;;;3.43;2.20;;;7.30;99.90;;;;;;2614766;39;20911;-76
2022/02/06 14:32:58;;;;;;;5.10;3.20;;;7.20;99.90;;;;;;2615634;54;20450;-76
2022/02/06 14:35:36;;;;;;;7.87;3.50;;;7.10;99.90;;;;;;2615625;54;20416;-77
2022/02/06 14:38:04;;;;;;;5.90;3.50;;;7.30;99.90;;;;;;2615004;54;20442;-76
2022/02/06 14:43:11;;;;;;;8.90;3.43;;;7.40;99.90;;;;;;2615857;39;20862;-76
2022/02/06 14:45:44;;;;;;;4.33;3.03;;;7.20;99.90;;;;;;2614600;39;20845;-77
2022/02/06 14:48:11;;;;;;;2.40;2.20;;;7.30;99.90;;;;;;2614767;54;20420;-77
2022/02/06 14:50:36;;;;;;;3.10;1.80;;;7.40;99.90;;;;;;2615029;54;20427;-76
2022/02/06 14:53:03;;;;;;;4.50;2.27;;;7.50;99.90;;;;;;2614406;54;20512;-76
2022/02/06 14:55:30;;;;;;;6.17;2.10;;;7.40;99.90;;;;;;2614635;47;20408;-76
2022/02/06 14:57:58;;;;;;;3.70;2.23;;;7.40;99.90;;;;;;2614178;47;20424;-76
2022/02/06 15:00:24;;;;;;;3.40;1.60;;;7.40;99.90;;;;;;2614881;54;20434;-76
2022/02/06 15:02:51;;;;;;;2.60;1.70;;;7.40;99.90;;;;;;2615327;47;20419;-75
2022/02/06 15:05:17;;;;;;;2.60;2.10;;;7.30;99.90;;;;;;2613912;54;20491;-75
2022/02/06 15:07:43;;;;;;;2.50;1.77;;;7.30;99.90;;;;;;2615601;39;20772;-76
2022/02/06 15:10:09;;;;;;;3.10;2.20;;;7.40;99.90;;;;;;2614220;54;20419;-75
2022/02/06 15:12:35;;;;;;;41.53;27.33;;;7.30;99.90;;;;;;2614995;54;20454;-77
2022/02/06 15:15:02;;;;;;;39.30;16.37;;;7.20;99.90;;;;;;2614080;54;20447;-76
2022/02/06 15:17:31;;;;;;;11.27;6.30;;;;;;;;;;2614893;54;20522;-74
2022/02/06 15:19:59;;;;;;;26.23;11.90;;;;;;;;;;2614152;39;20799;-75
2022/02/06 15:22:28;;;;;;;75.30;44.53;;;7.20;99.90;;;;;;2615194;54;20427;-74
2022/02/06 15:24:54;;;;;;;14.30;12.27;;;7.30;99.90;;;;;;2614299;47;20424;-75
2022/02/06 15:27:20;;;;;;;3.53;2.47;;;7.40;99.90;;;;;;2614198;39;20797;-76
2022/02/06 15:29:47;;;;;;;22.10;16.80;;;7.30;99.90;;;;;;2613950;54;20399;-75
2022/02/06 15:32:16;;;;;;;10.27;5.03;;;7.20;99.90;;;;;;2614035;51;20415;-75
2022/02/06 15:34:43;;;;;;;20.97;15.47;;;7.30;99.90;;;;;;2614412;47;20444;-75
2022/02/06 15:37:13;;;;;;;11.90;7.50;;;7.30;99.90;;;;;;2614583;39;21186;-74
2022/02/06 15:39:39;;;;;;;11.40;7.33;;;7.40;99.90;;;;;;2613952;54;20427;-75
2022/02/06 15:42:14;;;;;;;11.03;6.40;;;7.40;99.90;;;;;;2614485;54;20440;-76
2022/02/06 15:44:42;;;;;;;7.20;5.57;;;7.40;99.90;;;;;;2613416;54;20410;-75
2022/02/06 15:47:08;;;;;;;3.73;2.33;;;7.60;99.90;;;;;;2614312;54;20415;-75
2022/02/06 15:49:35;;;;;;;3.67;2.23;;;7.40;99.90;;;;;;2614754;54;20423;-77
2022/02/06 15:52:06;;;;;;;4.10;1.77;;;7.40;99.90;;;;;;2614264;47;20522;-75
2022/02/06 15:54:33;;;;;;;3.80;1.63;;;7.40;99.90;;;;;;2614852;54;20411;-75
2022/02/06 15:57:01;;;;;;;2.43;2.17;;;7.40;99.90;;;;;;2615332;54;21026;-74
2022/02/06 15:59:27;;;;;;;6.33;1.93;;;7.40;99.90;;;;;;2614057;54;20415;-75
2022/02/06 16:01:53;;;;;;;2.93;1.93;;;7.40;99.90;;;;;;2614304;54;20392;-73
2022/02/06 16:04:20;;;;;;;5.70;2.03;;;7.50;99.90;;;;;;2615347;54;20409;-76
2022/02/06 16:06:51;;;;;;;3.97;2.10;;;7.50;99.90;;;;;;2614354;54;20406;-74
2022/02/06 16:09:23;;;;;;;1.60;1.50;;;7.60;99.90;;;;;;2614107;47;20508;-74
2022/02/06 16:11:49;;;;;;;3.70;1.67;;;7.60;99.90;;;;;;2614863;54;20411;-73
2022/02/06 16:14:15;;;;;;;6.37;2.37;;;7.50;99.90;;;;;;2613862;54;20440;-76
2022/02/06 16:16:41;;;;;;;5.20;1.87;;;7.60;99.90;;;;;;2614737;47;20418;-74
2022/02/06 16:19:07;;;;;;;3.13;1.97;;;7.50;99.90;;;;;;2614953;54;20167;-74
2022/02/06 16:21:33;;;;;;;4.27;2.17;;;7.50;99.90;;;;;;2614389;47;20170;-74
2022/02/06 16:23:59;;;;;;;3.70;1.90;;;7.50;99.90;;;;;;2614117;51;20205;-73
2022/02/06 16:26:25;;;;;;;5.20;1.87;;;7.40;99.90;;;;;;2615663;54;20163;-73
2022/02/06 16:28:54;;;;;;;1.70;1.53;;;7.50;99.90;;;;;;2613066;47;20427;-74
2022/02/06 16:31:21;;;;;;;1.83;1.73;;;7.60;99.90;;;;;;2613752;54;20494;-76
2022/02/06 16:33:48;;;;;;;5.73;2.97;;;7.60;99.90;;;;;;2614648;54;20432;-76
2022/02/06 16:36:15;;;;;;;8.63;2.40;;;7.40;99.90;;;;;;2614246;46;20592;-75
2022/02/06 16:38:41;;;;;;;4.30;2.57;;;7.30;99.90;;;;;;2613842;54;20427;-76
2022/02/06 16:41:08;;;;;;;3.50;2.43;;;7.30;99.90;;;;;;2614149;47;20427;-75
2022/02/06 16:43:34;;;;;;;2.50;2.23;;;7.20;99.90;;;;;;2614247;54;20430;-75
2022/02/06 16:46:01;;;;;;;3.00;2.37;;;7.20;99.90;;;;;;2614448;54;20432;-74
2022/02/06 16:48:28;;;;;;;3.90;3.17;;;7.20;99.90;;;;;;2614769;54;20400;-74
2022/02/06 16:50:54;;;;;;;3.50;2.30;;;7.10;99.90;;;;;;2614537;47;20968;-74
2022/02/06 16:53:20;;;;;;;2.80;1.97;;;7.20;99.90;;;;;;2613862;47;20423;-75
2022/02/06 16:55:47;;;;;;;3.83;2.27;;;7.10;99.90;;;;;;2614660;54;21058;-74
2022/02/06 16:58:14;;;;;;;17.10;2.70;;;7.10;99.90;;;;;;2614028;54;20419;-75
2022/02/06 17:00:40;;;;;;;3.73;2.40;;;7.10;99.90;;;;;;2613091;54;20420;-75